Time;durP1;ratioP1;P1;durP2;ratioP2;P2;SDS_P1;SDS_P2;PMS_P1;PMS_P2;Temp;Humidity;BMP_temperature;BMP_pressure;BME280_temperature;BME280_humidity;BME280_pressure;Samples;Min_cycle;Max_cycle;Signal;HPM_P1;HPM_P2
2022/09/17 00:01:16;;;;;;;9.10;1.25;;;12.20;99.90;;;;;;5032890;28;20025;-77
2022/09/17 00:03:42;;;;;;;17.58;1.70;;;12.20;99.90;;;;;;5033378;28;20021;-77
2022/09/17 00:06:10;;;;;;;8.57;1.63;;;12.20;99.90;;;;;;5032931;28;20030;-77
2022/09/17 00:08:39;;;;;;;14.52;1.88;;;12.20;99.90;;;;;;5032792;28;20031;-77
2022/09/17 00:11:24;;;;;;;11.90;1.65;;;12.30;99.90;;;;;;5032506;28;20488;-77
2022/09/17 00:13:50;;;;;;;12.23;1.70;;;12.20;99.90;;;;;;5031241;28;20444;-78
2022/09/17 00:16:43;;;;;;;9.48;1.75;;;12.30;99.90;;;;;;5032634;28;20096;-77
2022/09/17 00:19:15;;;;;;;11.77;1.45;;;12.30;99.90;;;;;;5032301;28;20127;-77
2022/09/17 00:21:41;;;;;;;11.30;1.40;;;12.30;99.90;;;;;;5032711;28;20048;-77
2022/09/17 00:24:09;;;;;;;12.10;1.90;;;12.30;99.90;;;;;;5046935;28;20040;-78
2022/09/17 00:26:35;;;;;;;12.82;1.92;;;12.30;99.90;;;;;;5032689;28;20037;-77
2022/09/17 00:29:01;;;;;;;12.48;1.98;;;12.40;99.90;;;;;;5033032;28;20029;-77
2022/09/17 00:31:28;;;;;;;14.77;2.03;;;12.40;99.90;;;;;;5032289;28;20021;-78
2022/09/17 00:33:54;;;;;;;17.58;2.13;;;12.50;99.90;;;;;;5032311;28;20022;-78
2022/09/17 00:36:20;;;;;;;17.92;1.90;;;12.60;99.90;;;;;;5032095;28;20076;-78
2022/09/17 00:38:54;;;;;;;17.95;2.40;;;12.60;99.90;;;;;;5032086;28;20049;-78
2022/09/17 00:41:21;;;;;;;16.33;2.58;;;12.60;99.90;;;;;;5030740;28;20079;-78
2022/09/17 00:43:52;;;;;;;17.42;2.33;;;12.60;99.90;;;;;;5031146;28;20039;-77
2022/09/17 00:46:40;;;;;;;22.33;2.70;;;12.50;99.90;;;;;;5032049;28;20027;-78
2022/09/17 00:49:22;;;;;;;15.32;2.10;;;12.50;99.90;;;;;;5032098;28;20087;-77
2022/09/17 00:52:08;;;;;;;13.82;2.28;;;12.50;99.90;;;;;;5031805;28;20049;-78
2022/09/17 00:54:37;;;;;;;18.45;2.22;;;12.50;99.90;;;;;;5031994;28;20034;-78
2022/09/17 00:57:03;;;;;;;13.07;1.90;;;12.50;99.90;;;;;;5031747;28;20021;-78
2022/09/17 00:59:29;;;;;;;18.38;2.03;;;12.60;99.90;;;;;;5031818;28;20025;-78
2022/09/17 01:01:55;;;;;;;13.25;2.13;;;12.60;99.90;;;;;;5032272;28;20108;-78
2022/09/17 01:04:23;;;;;;;20.17;2.50;;;12.60;99.90;;;;;;5031986;28;20104;-78
2022/09/17 01:07:10;;;;;;;15.65;2.25;;;12.60;99.90;;;;;;5031677;28;20017;-78
2022/09/17 01:09:44;;;;;;;15.13;2.00;;;12.60;99.90;;;;;;5031716;28;20394;-78
2022/09/17 01:12:47;;;;;;;15.02;1.90;;;12.60;99.90;;;;;;5029987;28;20029;-77
2022/09/17 01:15:46;;;;;;;14.30;2.15;;;12.60;99.90;;;;;;5031626;28;20033;-77
2022/09/17 01:18:21;;;;;;;12.52;2.22;;;12.60;99.90;;;;;;5031608;28;20025;-78
2022/09/17 01:21:21;;;;;;;19.15;2.45;;;12.60;99.90;;;;;;5031700;28;20025;-78
2022/09/17 01:24:27;;;;;;;17.30;2.50;;;12.60;99.90;;;;;;5031744;28;20029;-78
2022/09/17 01:27:11;;;;;;;20.25;2.50;;;12.50;99.90;;;;;;5028603;28;20029;-78
2022/09/17 01:30:13;;;;;;;16.83;2.17;;;12.50;99.90;;;;;;5028804;28;20033;-78
2022/09/17 01:32:44;;;;;;;14.65;1.80;;;12.60;99.90;;;;;;5028593;28;20512;-78
2022/09/17 01:35:32;;;;;;;12.82;2.05;;;12.70;99.90;;;;;;5028523;28;20093;-78
2022/09/17 01:38:07;;;;;;;16.85;2.22;;;12.70;99.90;;;;;;5028502;28;20162;-77
2022/09/17 01:40:45;;;;;;;;;;;12.70;99.90;;;;;;5029005;28;20068;-78
2022/09/17 01:43:28;;;;;;;15.68;1.65;;;12.80;99.90;;;;;;5028387;28;20284;-77
2022/09/17 01:46:19;;;;;;;17.73;2.25;;;12.80;99.90;;;;;;5027750;28;20548;-78
2022/09/17 01:48:49;;;;;;;19.05;2.30;;;12.80;99.90;;;;;;5028349;28;20033;-78
2022/09/17 01:51:21;;;;;;;23.27;2.00;;;12.80;99.90;;;;;;5028216;28;20432;-78
2022/09/17 01:53:59;;;;;;;16.38;2.25;;;12.80;99.90;;;;;;5028264;28;20509;-78
2022/09/17 01:56:52;;;;;;;13.50;2.28;;;12.80;99.90;;;;;;5027898;28;20137;-78
2022/09/17 01:59:34;;;;;;;18.95;1.85;;;12.90;99.90;;;;;;5028137;28;20057;-78
2022/09/17 02:02:09;;;;;;;16.13;2.50;;;12.90;99.90;;;;;;5022122;28;20145;-78
2022/09/17 02:04:54;;;;;;;15.82;1.90;;;12.90;99.90;;;;;;5026385;28;20044;-78
2022/09/17 02:07:21;;;;;;;12.90;1.75;;;12.90;99.90;;;;;;5030558;28;20025;-78
2022/09/17 02:09:58;;;;;;;18.08;1.95;;;12.90;99.90;;;;;;5030557;28;20104;-78
2022/09/17 02:12:30;;;;;;;12.68;1.95;;;12.90;99.90;;;;;;5030610;28;20021;-78
2022/09/17 02:14:59;;;;;;;11.25;1.85;;;12.90;99.90;;;;;;5030166;28;20029;-78
2022/09/17 02:17:39;;;;;;;14.43;2.13;;;12.90;99.90;;;;;;5030792;28;20032;-77
2022/09/17 02:20:06;;;;;;;14.85;2.28;;;13.00;99.90;;;;;;5030458;28;20045;-77
2022/09/17 02:22:40;;;;;;;10.68;1.83;;;13.00;99.90;;;;;;5030370;28;20045;-78
2022/09/17 02:25:09;;;;;;;15.48;2.00;;;13.00;99.90;;;;;;5030357;28;20030;-78
2022/09/17 02:28:00;;;;;;;12.95;1.67;;;12.90;99.90;;;;;;5029174;28;20389;-78
2022/09/17 02:30:26;;;;;;;15.50;2.67;;;13.00;99.90;;;;;;5030475;28;20017;-78
2022/09/17 02:32:53;;;;;;;12.77;1.75;;;13.00;99.90;;;;;;5030418;28;20022;-78
2022/09/17 02:35:19;;;;;;;14.40;2.03;;;13.00;99.90;;;;;;5028963;28;20021;-78
2022/09/17 02:37:45;;;;;;;17.13;2.03;;;13.00;99.90;;;;;;5028727;28;20033;-78
2022/09/17 02:40:15;;;;;;;17.98;2.80;;;13.00;99.90;;;;;;5031070;28;20030;-78
2022/09/17 02:42:58;;;;;;;12.00;2.17;;;13.00;99.90;;;;;;5030904;28;20087;-78
2022/09/17 02:45:33;;;;;;;12.20;1.95;;;13.10;99.90;;;;;;5030880;28;20052;-78
2022/09/17 02:48:09;;;;;;;12.85;2.05;;;13.10;99.90;;;;;;5030649;28;20030;-78
2022/09/17 02:50:59;;;;;;;14.50;1.80;;;13.10;99.90;;;;;;5030477;28;20054;-78
2022/09/17 02:53:56;;;;;;;14.70;1.90;;;13.10;99.90;;;;;;5030264;28;20028;-78
2022/09/17 02:56:47;;;;;;;9.63;1.60;;;13.10;99.90;;;;;;5025032;28;20038;-78
2022/09/17 02:59:36;;;;;;;17.30;2.35;;;13.10;99.90;;;;;;5030260;28;20032;-78
2022/09/17 03:02:03;;;;;;;14.35;1.80;;;13.10;99.90;;;;;;5030681;28;20022;-78
2022/09/17 03:04:31;;;;;;;17.17;1.95;;;13.00;99.90;;;;;;5030267;28;20025;-78
2022/09/17 03:06:58;;;;;;;20.35;1.95;;;13.00;99.90;;;;;;5031754;28;20026;-78
2022/09/17 03:09:24;;;;;;;19.50;2.40;;;13.00;99.90;;;;;;5034504;28;20061;-78
2022/09/17 03:11:49;;;;;;;14.05;2.40;;;13.00;99.90;;;;;;5033128;28;20056;-78
2022/09/17 03:14:15;;;;;;;15.68;2.47;;;12.90;99.90;;;;;;5034342;28;20029;-78
2022/09/17 03:16:41;;;;;;;15.15;2.03;;;12.90;99.90;;;;;;5032343;28;20049;-78
2022/09/17 03:19:07;;;;;;;13.30;2.13;;;12.90;99.90;;;;;;5033991;28;20029;-78
2022/09/17 03:21:32;;;;;;;17.05;2.20;;;12.90;99.90;;;;;;5034515;28;20433;-78
2022/09/17 03:23:59;;;;;;;19.42;2.05;;;12.90;99.90;;;;;;5033863;28;20034;-78
2022/09/17 03:26:25;;;;;;;19.67;2.00;;;12.90;99.90;;;;;;5034016;28;20036;-78
2022/09/17 03:28:51;;;;;;;13.80;1.80;;;12.90;99.90;;;;;;5033765;28;20044;-78
2022/09/17 03:31:16;;;;;;;16.70;2.15;;;12.80;99.90;;;;;;5033458;28;20033;-78
2022/09/17 03:33:42;;;;;;;8.40;1.70;;;12.90;99.90;;;;;;5033244;28;20032;-78
2022/09/17 03:36:07;;;;;;;11.65;1.58;;;12.90;99.90;;;;;;5033531;28;20108;-78
2022/09/17 03:38:33;;;;;;;13.77;1.70;;;12.90;99.90;;;;;;5033199;28;20033;-78
2022/09/17 03:41:01;;;;;;;11.77;1.30;;;12.90;99.90;;;;;;5033826;28;20025;-78
2022/09/17 03:43:27;;;;;;;8.07;1.35;;;12.90;99.90;;;;;;5033222;28;20022;-78
2022/09/17 03:45:53;;;;;;;8.35;1.33;;;12.90;99.90;;;;;;5033448;28;20029;-78
2022/09/17 03:48:18;;;;;;;7.50;1.25;;;12.90;99.90;;;;;;5033433;28;20099;-77
2022/09/17 03:50:44;;;;;;;10.40;1.48;;;12.90;99.90;;;;;;5032953;28;20120;-78
2022/09/17 03:53:10;;;;;;;15.25;1.60;;;12.90;99.90;;;;;;5033603;28;20431;-78
2022/09/17 03:55:37;;;;;;;9.43;1.38;;;12.90;99.90;;;;;;5033374;28;20060;-78
2022/09/17 03:58:03;;;;;;;9.50;1.65;;;12.90;99.90;;;;;;5032933;28;20025;-78
2022/09/17 04:00:29;;;;;;;8.48;1.55;;;12.90;99.90;;;;;;5033119;28;20528;-78
2022/09/17 04:02:55;;;;;;;5.35;1.00;;;12.90;99.90;;;;;;5033021;28;20028;-78
2022/09/17 04:05:21;;;;;;;12.25;1.30;;;12.90;99.90;;;;;;5033289;28;20096;-78
2022/09/17 04:07:46;;;;;;;9.13;1.33;;;13.00;99.90;;;;;;5033184;28;20106;-78
2022/09/17 04:10:12;;;;;;;13.75;1.30;;;13.00;99.90;;;;;;5032928;28;20068;-78
2022/09/17 04:12:38;;;;;;;13.15;1.45;;;13.00;99.90;;;;;;5033257;28;20076;-78
2022/09/17 04:15:05;;;;;;;8.32;1.30;;;13.00;99.90;;;;;;5032759;28;20018;-78
2022/09/17 04:17:30;;;;;;;8.73;1.40;;;13.00;99.90;;;;;;5032643;28;20022;-78
2022/09/17 04:19:57;;;;;;;6.70;1.10;;;13.00;99.90;;;;;;5032134;28;20018;-78
2022/09/17 04:22:23;;;;;;;15.02;1.80;;;13.00;99.90;;;;;;5033097;28;20017;-77
2022/09/17 04:24:48;;;;;;;4.95;1.25;;;13.00;99.90;;;;;;5032616;28;20034;-78
2022/09/17 04:27:14;;;;;;;12.05;1.40;;;13.00;99.90;;;;;;5032516;28;20444;-78
2022/09/17 04:29:39;;;;;;;8.57;1.30;;;13.00;99.90;;;;;;5032409;28;20037;-78
2022/09/17 04:32:06;;;;;;;7.70;1.00;;;13.00;99.90;;;;;;5018967;28;20052;-78
2022/09/17 04:34:32;;;;;;;11.32;1.50;;;13.10;99.90;;;;;;5032304;28;20478;-78
2022/09/17 04:36:58;;;;;;;10.90;1.58;;;13.10;99.90;;;;;;5032370;28;20192;-78
2022/09/17 04:39:23;;;;;;;6.55;1.20;;;13.10;99.90;;;;;;5032297;28;20413;-77
2022/09/17 04:41:49;;;;;;;10.93;1.38;;;13.10;99.90;;;;;;5032884;28;20018;-78
2022/09/17 04:44:14;;;;;;;8.50;1.33;;;13.20;99.90;;;;;;5033747;28;20398;-78
2022/09/17 04:46:40;;;;;;;8.75;1.40;;;13.00;99.90;;;;;;5033145;28;20018;-78
2022/09/17 04:49:06;;;;;;;9.48;1.48;;;12.90;99.90;;;;;;5033316;28;20031;-78
2022/09/17 04:51:32;;;;;;;10.43;1.90;;;12.80;99.90;;;;;;5033761;28;20481;-78
2022/09/17 04:53:57;;;;;;;7.70;1.20;;;12.70;99.90;;;;;;5032840;28;20117;-78
2022/09/17 04:56:23;;;;;;;11.10;1.63;;;12.70;99.90;;;;;;5033547;28;20037;-78
2022/09/17 04:58:48;;;;;;;13.32;1.42;;;12.60;99.90;;;;;;5033279;28;20094;-78
2022/09/17 05:01:17;;;;;;;13.07;1.30;;;12.60;99.90;;;;;;5033358;28;20017;-78
2022/09/17 05:03:43;;;;;;;9.90;1.30;;;12.50;99.90;;;;;;5032571;28;20483;-78
2022/09/17 05:06:09;;;;;;;10.00;1.67;;;12.50;99.90;;;;;;5032665;28;20029;-78
2022/09/17 05:08:34;;;;;;;10.77;1.63;;;12.50;99.90;;;;;;5033523;28;20065;-78
2022/09/17 05:11:00;;;;;;;10.95;1.75;;;12.50;99.90;;;;;;5033017;28;20477;-78
2022/09/17 05:13:26;;;;;;;9.85;1.42;;;12.40;99.90;;;;;;5033200;28;20029;-78
2022/09/17 05:15:55;;;;;;;7.13;1.20;;;12.40;99.90;;;;;;5033616;28;20048;-78
2022/09/17 05:18:21;;;;;;;8.00;1.10;;;12.40;99.90;;;;;;5033209;28;20052;-77
2022/09/17 05:20:46;;;;;;;6.13;1.20;;;12.40;99.90;;;;;;5031916;28;20068;-77
2022/09/17 05:23:12;;;;;;;9.85;1.10;;;12.40;99.90;;;;;;5033507;28;20025;-77
2022/09/17 05:25:38;;;;;;;18.63;1.70;;;12.40;99.90;;;;;;5033104;28;20072;-77
2022/09/17 05:28:03;;;;;;;10.10;1.25;;;12.30;99.90;;;;;;5033552;28;20029;-77
2022/09/17 05:30:29;;;;;;;9.57;1.58;;;12.30;99.90;;;;;;5031867;28;20452;-78
2022/09/17 05:33:04;;;;;;;8.02;1.50;;;12.30;99.90;;;;;;5032977;28;20095;-77
2022/09/17 05:35:30;;;;;;;;;;;12.30;99.90;;;;;;5035965;28;20036;-77
2022/09/17 05:37:58;;;;;;;6.00;0.98;;;12.20;99.90;;;;;;5043392;28;19974;-77
2022/09/17 05:40:24;;;;;;;11.25;1.45;;;12.20;99.90;;;;;;5043708;28;20052;-78
2022/09/17 05:42:50;;;;;;;10.65;1.42;;;12.20;99.90;;;;;;5048963;28;20052;-77
2022/09/17 05:45:15;;;;;;;9.48;1.33;;;12.20;99.90;;;;;;5043723;28;20496;-77
2022/09/17 05:47:41;;;;;;;5.85;1.10;;;12.20;99.90;;;;;;5039335;28;20466;-77
2022/09/17 05:50:07;;;;;;;8.90;1.35;;;12.20;99.90;;;;;;5031207;28;20128;-77
2022/09/17 05:52:32;;;;;;;7.05;1.20;;;12.20;99.90;;;;;;5031338;28;20100;-77
2022/09/17 05:54:58;;;;;;;8.88;1.20;;;12.20;99.90;;;;;;5032318;28;20022;-77
2022/09/17 05:57:23;;;;;;;10.10;1.40;;;12.20;99.90;;;;;;5041310;28;20070;-78
2022/09/17 05:59:49;;;;;;;8.18;1.33;;;12.20;99.90;;;;;;5041225;28;20527;-77
2022/09/17 06:02:14;;;;;;;10.70;1.40;;;12.20;99.90;;;;;;5040256;28;20025;-77
2022/09/17 06:04:40;;;;;;;11.27;1.40;;;12.20;99.90;;;;;;5040086;28;20036;-77
2022/09/17 06:07:07;;;;;;;11.60;1.60;;;12.20;99.90;;;;;;5042811;28;20354;-78
2022/09/17 06:09:37;;;;;;;13.45;1.83;;;12.20;99.90;;;;;;5045005;28;20036;-76
2022/09/17 06:12:04;;;;;;;13.35;1.73;;;12.30;99.90;;;;;;5045327;28;20056;-78
2022/09/17 06:14:30;;;;;;;9.00;1.35;;;12.30;99.90;;;;;;5043063;28;20033;-78
2022/09/17 06:16:55;;;;;;;9.65;1.70;;;12.40;99.90;;;;;;5041040;28;20024;-78
2022/09/17 06:19:21;;;;;;;9.60;1.40;;;12.40;99.90;;;;;;5042960;28;20029;-79
2022/09/17 06:21:49;;;;;;;11.43;1.75;;;12.40;99.90;;;;;;5040377;28;20017;-79
2022/09/17 06:24:15;;;;;;;11.23;1.67;;;12.50;99.90;;;;;;5048077;28;20099;-79
2022/09/17 06:26:41;;;;;;;12.98;1.45;;;12.50;99.90;;;;;;5039548;28;20029;-78
2022/09/17 06:29:06;;;;;;;7.85;1.33;;;12.50;99.90;;;;;;5035668;28;20024;-77
2022/09/17 06:31:32;;;;;;;15.23;2.00;;;12.60;99.90;;;;;;5044396;28;20128;-78
2022/09/17 06:33:57;;;;;;;15.68;1.92;;;12.50;99.90;;;;;;5040166;28;20049;-78
2022/09/17 06:36:23;;;;;;;11.63;1.80;;;12.60;99.90;;;;;;5038669;28;20034;-78
2022/09/17 06:38:49;;;;;;;18.33;2.15;;;12.60;99.90;;;;;;5039345;28;20043;-78
2022/09/17 06:41:15;;;;;;;12.82;2.00;;;12.60;99.90;;;;;;5046553;28;20023;-78
2022/09/17 06:43:41;;;;;;;11.30;1.63;;;12.60;99.90;;;;;;5050922;28;20190;-76
2022/09/17 06:46:09;;;;;;;8.82;1.73;;;12.60;99.90;;;;;;5038352;28;20088;-79
2022/09/17 06:48:36;;;;;;;9.30;1.23;;;12.60;99.90;;;;;;5034469;28;20057;-78
2022/09/17 06:51:03;;;;;;;13.85;1.63;;;12.60;99.90;;;;;;5034507;28;20041;-77
2022/09/17 06:53:30;;;;;;;15.90;1.63;;;12.60;99.90;;;;;;5033354;28;20022;-77
2022/09/17 06:55:57;;;;;;;10.40;1.30;;;12.60;99.90;;;;;;5033726;28;20022;-77
2022/09/17 06:58:23;;;;;;;8.10;1.33;;;12.60;99.90;;;;;;5033299;28;20029;-77
2022/09/17 07:00:49;;;;;;;9.35;1.50;;;12.60;99.90;;;;;;5034442;28;20046;-77
2022/09/17 07:03:14;;;;;;;15.63;1.65;;;12.70;99.90;;;;;;5033036;28;20013;-77
2022/09/17 07:05:43;;;;;;;8.50;1.55;;;12.70;99.90;;;;;;5033174;28;20413;-76
2022/09/17 07:08:09;;;;;;;11.98;1.70;;;12.80;99.90;;;;;;5033909;28;20076;-76
2022/09/17 07:10:36;;;;;;;8.95;1.40;;;12.90;99.90;;;;;;5040916;28;20029;-77
2022/09/17 07:13:02;;;;;;;16.63;1.90;;;12.80;99.90;;;;;;5036486;28;20045;-73
2022/09/17 07:15:28;;;;;;;11.52;1.60;;;12.90;99.90;;;;;;5033614;28;20021;-77
2022/09/17 07:17:54;;;;;;;13.55;1.88;;;12.90;99.90;;;;;;5034176;28;20108;-78
2022/09/17 07:20:20;;;;;;;10.48;1.55;;;12.90;99.90;;;;;;5039736;28;20109;-77
2022/09/17 07:22:55;;;;;;;9.38;1.40;;;12.90;99.90;;;;;;5033977;28;20136;-76
2022/09/17 07:25:21;;;;;;;13.25;1.60;;;12.90;99.90;;;;;;5033414;28;20021;-77
2022/09/17 07:27:47;;;;;;;10.40;1.40;;;12.90;99.90;;;;;;5035028;28;20041;-77
2022/09/17 07:30:12;;;;;;;9.38;1.35;;;12.90;99.90;;;;;;5034769;28;20420;-77
2022/09/17 07:32:38;;;;;;;10.40;1.40;;;12.90;99.90;;;;;;5042847;28;20036;-76
2022/09/17 07:35:04;;;;;;;8.73;1.60;;;13.00;99.90;;;;;;5034313;28;20108;-77
2022/09/17 07:37:29;;;;;;;6.25;0.85;;;13.00;99.90;;;;;;5033746;28;20406;-76
2022/09/17 07:39:55;;;;;;;9.43;1.33;;;13.10;99.90;;;;;;5033100;28;20036;-76
2022/09/17 07:42:21;;;;;;;6.47;0.98;;;13.20;99.90;;;;;;5032422;28;20044;-76
2022/09/17 07:44:47;;;;;;;8.45;1.15;;;13.30;99.90;;;;;;5034409;28;20044;-76
2022/09/17 07:47:12;;;;;;;4.68;1.00;;;13.40;99.90;;;;;;5034445;28;20083;-76
2022/09/17 07:49:38;;;;;;;10.50;1.27;;;13.60;99.90;;;;;;5034331;28;20033;-76
2022/09/17 07:52:05;;;;;;;8.82;1.20;;;13.60;99.90;;;;;;5033494;28;20046;-76
2022/09/17 07:54:32;;;;;;;4.95;0.90;;;13.70;99.90;;;;;;5032530;28;20014;-76
2022/09/17 07:56:58;;;;;;;8.65;1.25;;;13.80;99.90;;;;;;5033289;28;20359;-76
2022/09/17 07:59:24;;;;;;;7.47;0.93;;;13.80;99.90;;;;;;5032605;28;20026;-76
2022/09/17 08:01:49;;;;;;;8.27;1.20;;;13.70;99.90;;;;;;5032949;28;20033;-76
2022/09/17 08:04:16;;;;;;;6.40;0.98;;;13.70;99.90;;;;;;5033171;28;20022;-76
2022/09/17 08:06:41;;;;;;;4.60;0.65;;;13.70;99.90;;;;;;5033886;28;20038;-77
2022/09/17 08:09:09;;;;;;;6.15;0.57;;;13.70;99.90;;;;;;5034794;28;20040;-76
2022/09/17 08:11:35;;;;;;;4.57;0.82;;;13.70;99.90;;;;;;5035162;28;20412;-76
2022/09/17 08:14:01;;;;;;;5.20;0.63;;;13.80;99.90;;;;;;5034183;28;20183;-76
2022/09/17 08:16:26;;;;;;;5.75;0.80;;;13.90;99.90;;;;;;5033999;28;20022;-76
2022/09/17 08:18:56;;;;;;;3.20;0.60;;;14.00;99.90;;;;;;5034145;28;20400;-77
2022/09/17 08:21:23;;;;;;;6.05;1.05;;;14.10;99.90;;;;;;5029349;28;20037;-76
2022/09/17 08:23:48;;;;;;;6.65;1.05;;;14.30;99.90;;;;;;5033226;28;20040;-76
2022/09/17 08:26:17;;;;;;;7.00;0.98;;;14.50;99.90;;;;;;5033151;28;20021;-76
2022/09/17 08:28:48;;;;;;;7.80;1.08;;;14.50;99.90;;;;;;5031158;28;20387;-76
2022/09/17 08:31:15;;;;;;;7.28;1.23;;;14.30;99.90;;;;;;5032350;28;20032;-76
2022/09/17 08:33:41;;;;;;;4.05;1.15;;;14.20;99.90;;;;;;5032732;28;20057;-76
2022/09/17 08:36:09;;;;;;;6.05;0.88;;;14.10;99.90;;;;;;5032392;28;20029;-77
2022/09/17 08:38:36;;;;;;;7.75;0.90;;;14.10;99.90;;;;;;5032297;28;20056;-77
2022/09/17 08:41:19;;;;;;;4.60;0.80;;;14.00;99.90;;;;;;5032489;28;20020;-77
2022/09/17 08:44:03;;;;;;;8.55;1.10;;;13.90;99.90;;;;;;5032030;28;20013;-77
2022/09/17 08:46:39;;;;;;;4.90;0.90;;;14.00;99.90;;;;;;5032124;28;20021;-77
2022/09/17 08:49:11;;;;;;;5.97;0.73;;;14.10;99.90;;;;;;5032253;28;20111;-77
2022/09/17 08:51:42;;;;;;;5.45;1.02;;;14.30;99.90;;;;;;5032322;28;20206;-77
2022/09/17 08:54:39;;;;;;;10.85;1.17;;;14.50;99.90;;;;;;5031736;28;20029;-77
2022/09/17 08:57:33;;;;;;;7.03;1.00;;;14.70;99.90;;;;;;5032065;28;20037;-76
2022/09/17 09:00:02;;;;;;;8.63;1.17;;;14.80;99.90;;;;;;5019880;28;20389;-77
2022/09/17 09:02:33;;;;;;;7.60;1.05;;;14.80;99.90;;;;;;5031711;28;20025;-77
2022/09/17 09:05:02;;;;;;;6.53;0.93;;;14.90;99.90;;;;;;5017774;28;20029;-76
2022/09/17 09:07:37;;;;;;;10.77;1.25;;;15.00;99.90;;;;;;5031989;28;20030;-76
2022/09/17 09:10:12;;;;;;;7.97;1.05;;;15.20;99.90;;;;;;5031898;28;20057;-77
2022/09/17 09:12:40;;;;;;;8.02;1.05;;;15.30;99.90;;;;;;5031779;28;20068;-77
2022/09/17 09:15:16;;;;;;;7.45;1.05;;;15.40;99.90;;;;;;5017476;28;20029;-77
2022/09/17 09:17:45;;;;;;;7.80;0.85;;;15.40;99.90;;;;;;5031499;28;20520;-77
2022/09/17 09:20:36;;;;;;;6.38;0.90;;;15.30;99.90;;;;;;5031639;28;20028;-77
2022/09/17 09:23:12;;;;;;;6.72;0.93;;;15.20;99.90;;;;;;5025385;28;20698;-77
2022/09/17 09:25:51;;;;;;;9.35;1.13;;;15.20;99.90;;;;;;5032011;28;20029;-77
2022/09/17 09:28:38;;;;;;;7.95;0.90;;;15.40;99.90;;;;;;5031179;28;20021;-77
2022/09/17 09:31:12;;;;;;;7.57;0.90;;;15.50;99.90;;;;;;5031051;28;20040;-77
2022/09/17 09:33:41;;;;;;;6.32;0.90;;;15.30;99.90;;;;;;5031171;28;20393;-77
2022/09/17 09:36:10;;;;;;;5.10;0.95;;;15.10;99.90;;;;;;5030949;28;20033;-77
2022/09/17 09:38:56;;;;;;;7.03;1.00;;;14.90;99.90;;;;;;5029855;28;20033;-77
2022/09/17 09:41:30;;;;;;;7.57;1.10;;;14.70;99.90;;;;;;5031108;28;20103;-77
2022/09/17 09:44:03;;;;;;;8.00;1.30;;;14.60;99.90;;;;;;5030894;28;20367;-77
2022/09/17 09:46:31;;;;;;;7.13;1.25;;;14.70;99.90;;;;;;5030682;28;20478;-77
2022/09/17 09:49:23;;;;;;;6.50;0.85;;;14.90;99.90;;;;;;5030824;28;20021;-77
2022/09/17 09:52:22;;;;;;;4.72;0.90;;;15.00;99.90;;;;;;5029536;28;20061;-77
2022/09/17 09:55:02;;;;;;;7.78;1.20;;;14.90;99.90;;;;;;5030750;28;20521;-77
2022/09/17 09:57:48;;;;;;;9.85;1.27;;;14.90;99.90;;;;;;5030533;28;20390;-76
2022/09/17 10:00:25;;;;;;;9.38;1.27;;;14.90;99.90;;;;;;5031240;28;20037;-77
2022/09/17 10:03:13;;;;;;;8.63;1.33;;;15.10;99.90;;;;;;5028182;28;20037;-77
2022/09/17 10:05:50;;;;;;;9.52;1.10;;;15.20;99.90;;;;;;5028778;28;20500;-77
2022/09/17 10:08:16;;;;;;;9.85;1.70;;;15.30;99.90;;;;;;5029456;28;20026;-77
2022/09/17 10:11:01;;;;;;;15.75;1.92;;;15.40;99.90;;;;;;5030674;28;20033;-77
2022/09/17 10:13:29;;;;;;;13.30;1.70;;;15.60;99.90;;;;;;5030684;28;20045;-77
2022/09/17 10:15:54;;;;;;;9.45;1.80;;;15.70;99.90;;;;;;5030154;28;20116;-77
2022/09/17 10:18:24;;;;;;;14.35;2.08;;;15.90;99.90;;;;;;5031375;28;20112;-77
2022/09/17 10:21:00;;;;;;;13.32;2.03;;;15.90;99.90;;;;;;5031490;28;20034;-77
2022/09/17 10:23:32;;;;;;;12.88;1.85;;;15.80;99.90;;;;;;5031718;28;20013;-77
2022/09/17 10:25:58;;;;;;;12.15;1.48;;;15.50;99.90;;;;;;5031566;28;20028;-79
2022/09/17 10:28:27;;;;;;;10.18;1.33;;;15.20;99.90;;;;;;5031383;28;20040;-79
2022/09/17 10:30:58;;;;;;;10.35;1.48;;;15.00;99.90;;;;;;5031188;28;20026;-78
2022/09/17 10:33:29;;;;;;;12.35;1.70;;;14.80;99.90;;;;;;5034226;28;20019;-76
2022/09/17 10:36:12;;;;;;;12.30;1.60;;;14.70;99.90;;;;;;5033010;28;20049;-77
2022/09/17 10:38:40;;;;;;;9.90;1.42;;;14.60;99.90;;;;;;5033563;28;20021;-76
2022/09/17 10:41:23;;;;;;;13.68;1.73;;;14.60;99.90;;;;;;5037888;28;20025;-77
2022/09/17 10:43:49;;;;;;;11.77;1.50;;;14.80;99.90;;;;;;5035845;28;20087;-77
2022/09/17 10:46:26;;;;;;;15.50;1.92;;;15.10;99.90;;;;;;5036481;28;20473;-77
2022/09/17 10:48:58;;;;;;;11.07;1.85;;;15.30;99.90;;;;;;5039702;28;20025;-77
2022/09/17 10:51:25;;;;;;;10.02;1.75;;;15.50;99.90;;;;;;5041053;28;20034;-76
2022/09/17 10:54:11;;;;;;;12.57;1.65;;;15.60;99.90;;;;;;5034425;28;20059;-76
2022/09/17 10:56:41;;;;;;;9.63;1.77;;;15.60;99.90;;;;;;5042798;28;20048;-76
2022/09/17 10:59:27;;;;;;;9.23;1.83;;;15.40;99.90;;;;;;5044284;28;20033;-75
2022/09/17 11:02:01;;;;;;;11.65;1.92;;;15.30;99.90;;;;;;5016634;28;20045;-75
2022/09/17 11:04:59;;;;;;;18.38;2.28;;;15.30;99.90;;;;;;5027443;28;20469;-76
2022/09/17 11:07:47;;;;;;;10.43;2.00;;;15.40;99.90;;;;;;5009326;28;20130;-75
2022/09/17 11:10:33;;;;;;;13.60;2.20;;;15.60;99.90;;;;;;5029587;28;20369;-77
2022/09/17 11:13:48;;;;;;;15.13;1.85;;;15.90;99.90;;;;;;5029995;28;20079;-76
2022/09/17 11:16:40;;;;;;;13.45;2.00;;;16.20;99.90;;;;;;5013890;28;20109;-77
2022/09/17 11:19:27;;;;;;;16.77;1.80;;;16.40;99.90;;;;;;5029483;28;20029;-77
2022/09/17 11:22:16;;;;;;;16.23;2.20;;;16.60;99.90;;;;;;5017561;28;20030;-77
2022/09/17 11:24:59;;;;;;;9.75;1.88;;;16.90;99.90;;;;;;5029784;28;20033;-77
2022/09/17 11:27:43;;;;;;;14.82;2.17;;;17.00;99.90;;;;;;5031952;28;20033;-77
2022/09/17 11:30:16;;;;;;;10.93;2.15;;;17.10;99.90;;;;;;5033517;28;20067;-77
2022/09/17 11:33:09;;;;;;;19.40;2.50;;;17.10;99.90;;;;;;5033628;28;20072;-77
2022/09/17 11:36:07;;;;;;;13.77;2.10;;;17.10;99.90;;;;;;5021969;28;20551;-76
2022/09/17 11:38:43;;;;;;;13.98;2.28;;;17.20;99.90;;;;;;5032616;28;20048;-76
2022/09/17 11:41:44;;;;;;;12.60;1.90;;;17.40;99.90;;;;;;5032708;28;20385;-76
2022/09/17 11:44:20;;;;;;;13.65;1.92;;;17.30;99.90;;;;;;5009312;28;20066;-77
2022/09/17 11:46:52;;;;;;;16.77;2.13;;;16.90;99.90;;;;;;5045783;28;20171;-77
2022/09/17 11:49:41;;;;;;;10.77;2.00;;;16.40;99.90;;;;;;5037206;28;20024;-78
2022/09/17 11:52:18;;;;;;;13.68;1.83;;;16.00;99.90;;;;;;5039902;28;20039;-77
2022/09/17 11:54:58;;;;;;;11.65;1.88;;;15.80;99.90;;;;;;5018446;28;20037;-76
2022/09/17 11:57:32;;;;;;;15.25;1.88;;;15.80;99.90;;;;;;5033056;28;20028;-77
2022/09/17 12:00:07;;;;;;;13.38;2.10;;;15.90;99.90;;;;;;5031766;28;20041;-76
2022/09/17 12:02:41;;;;;;;;;;;16.00;99.90;;;;;;5032779;28;20036;-75
2022/09/17 12:05:29;;;;;;;14.07;2.22;;;16.00;99.90;;;;;;5033186;28;19905;-78
2022/09/17 12:08:06;;;;;;;14.23;1.88;;;15.80;99.90;;;;;;5031659;28;20498;-78
2022/09/17 12:10:53;;;;;;;17.55;2.13;;;15.50;99.90;;;;;;5032875;28;20413;-77
2022/09/17 12:13:37;;;;;;;14.00;2.05;;;15.30;99.90;;;;;;5032972;28;20021;-77
2022/09/17 12:16:25;;;;;;;15.32;2.40;;;15.20;99.90;;;;;;5033169;28;20455;-78
2022/09/17 12:19:16;;;;;;;18.30;2.25;;;15.30;99.90;;;;;;5032621;28;20119;-77
2022/09/17 12:21:46;;;;;;;19.25;2.60;;;15.50;99.90;;;;;;5032710;28;20033;-76
2022/09/17 12:24:30;;;;;;;12.57;1.67;;;15.70;99.90;;;;;;5032544;28;20068;-76
2022/09/17 12:27:24;;;;;;;10.13;1.80;;;15.90;99.90;;;;;;5032930;28;20029;-75
2022/09/17 12:30:08;;;;;;;10.00;1.70;;;16.10;99.90;;;;;;5032316;28;20059;-76
2022/09/17 12:33:19;;;;;;;14.52;1.95;;;16.30;99.90;;;;;;5032153;28;20085;-76
2022/09/17 12:36:10;;;;;;;15.73;2.10;;;16.50;99.90;;;;;;5020008;28;20409;-77
2022/09/17 12:38:55;;;;;;;11.13;1.65;;;16.70;99.90;;;;;;5032203;28;20037;-76
2022/09/17 12:41:46;;;;;;;9.98;1.42;;;16.80;99.90;;;;;;5037552;28;20131;-76
2022/09/17 12:44:57;;;;;;;9.63;1.70;;;17.00;99.90;;;;;;5019505;28;20033;-76
2022/09/17 12:47:54;;;;;;;11.85;2.20;;;17.20;99.10;;;;;;5018225;28;20060;-77
2022/09/17 12:50:58;;;;;;;9.18;1.73;;;17.20;96.90;;;;;;5016021;28;20868;-76
2022/09/17 12:53:50;;;;;;;8.90;1.80;;;17.20;97.60;;;;;;5015032;28;20115;-75
2022/09/17 12:56:37;;;;;;;13.65;1.73;;;17.20;97.10;;;;;;5020397;28;20180;-75
2022/09/17 12:59:14;;;;;;;14.95;1.90;;;17.30;97.70;;;;;;5022652;28;20485;-74
2022/09/17 13:01:56;;;;;;;11.32;1.60;;;17.40;97.20;;;;;;5008136;28;20112;-74
2022/09/17 13:04:40;;;;;;;10.30;1.85;;;17.50;96.30;;;;;;5020948;28;20541;-74
2022/09/17 13:07:30;;;;;;;7.53;1.55;;;17.60;95.00;;;;;;5015963;28;20540;-74
2022/09/17 13:10:19;;;;;;;10.85;1.73;;;17.60;95.40;;;;;;5023894;28;20099;-75
2022/09/17 13:12:57;;;;;;;9.85;1.75;;;17.70;94.70;;;;;;5025531;28;20378;-76